sensor_id;sensor_type;location;lat;lon;timestamp;temperature;humidity
22714;DHT22;11524;50.846;4.326;2022-10-28T00:01:21;23.60;59.40
22714;DHT22;11524;50.846;4.326;2022-10-28T00:03:49;23.60;59.30
22714;DHT22;11524;50.846;4.326;2022-10-28T00:06:17;23.60;59.50
22714;DHT22;11524;50.846;4.326;2022-10-28T00:08:43;23.60;59.20
22714;DHT22;11524;50.846;4.326;2022-10-28T00:13:40;23.60;59.20
22714;DHT22;11524;50.846;4.326;2022-10-28T00:16:28;23.60;59.30
22714;DHT22;11524;50.846;4.326;2022-10-28T00:18:55;23.50;58.90
22714;DHT22;11524;50.846;4.326;2022-10-28T00:21:25;23.60;59.30
22714;DHT22;11524;50.846;4.326;2022-10-28T00:23:51;23.60;59.10
22714;DHT22;11524;50.846;4.326;2022-10-28T00:26:20;23.50;59.20
22714;DHT22;11524;50.846;4.326;2022-10-28T00:28:48;23.60;59.40
22714;DHT22;11524;50.846;4.326;2022-10-28T00:31:15;23.50;59.10
22714;DHT22;11524;50.846;4.326;2022-10-28T00:33:42;23.50;59.30
22714;DHT22;11524;50.846;4.326;2022-10-28T00:36:29;23.50;59.30
22714;DHT22;11524;50.846;4.326;2022-10-28T00:38:56;23.50;59.00
22714;DHT22;11524;50.846;4.326;2022-10-28T00:41:25;23.50;59.10
22714;DHT22;11524;50.846;4.326;2022-10-28T00:43:59;23.50;59.50
22714;DHT22;11524;50.846;4.326;2022-10-28T00:48:54;23.50;59.40
22714;DHT22;11524;50.846;4.326;2022-10-28T00:51:22;23.50;59.10
22714;DHT22;11524;50.846;4.326;2022-10-28T00:53:51;23.50;59.30
22714;DHT22;11524;50.846;4.326;2022-10-28T00:56:17;23.50;59.40
22714;DHT22;11524;50.846;4.326;2022-10-28T00:58:45;23.50;59.40
22714;DHT22;11524;50.846;4.326;2022-10-28T01:01:12;23.50;59.10
22714;DHT22;11524;50.846;4.326;2022-10-28T01:03:37;23.50;59.20
22714;DHT22;11524;50.846;4.326;2022-10-28T01:06:03;23.50;59.30
22714;DHT22;11524;50.846;4.326;2022-10-28T01:08:29;23.50;59.40
22714;DHT22;11524;50.846;4.326;2022-10-28T01:22:50;23.50;58.80
22714;DHT22;11524;50.846;4.326;2022-10-28T01:25:31;23.40;59.20
22714;DHT22;11524;50.846;4.326;2022-10-28T01:37:09;23.40;58.90
22714;DHT22;11524;50.846;4.326;2022-10-28T01:40:00;23.40;59.00
22714;DHT22;11524;50.846;4.326;2022-10-28T01:45:51;23.50;62.20
22714;DHT22;11524;50.846;4.326;2022-10-28T01:48:22;23.40;62.70
22714;DHT22;11524;50.846;4.326;2022-10-28T01:51:07;23.50;62.60
22714;DHT22;11524;50.846;4.326;2022-10-28T01:53:37;23.50;63.60
22714;DHT22;11524;50.846;4.326;2022-10-28T01:56:08;23.50;62.30
22714;DHT22;11524;50.846;4.326;2022-10-28T01:58:36;23.50;62.70
22714;DHT22;11524;50.846;4.326;2022-10-28T02:01:05;23.50;62.30
22714;DHT22;11524;50.846;4.326;2022-10-28T02:03:31;23.50;62.30
22714;DHT22;11524;50.846;4.326;2022-10-28T02:06:00;23.50;62.60
22714;DHT22;11524;50.846;4.326;2022-10-28T02:11:15;23.50;62.40
22714;DHT22;11524;50.846;4.326;2022-10-28T02:22:14;23.50;58.80
22714;DHT22;11524;50.846;4.326;2022-10-28T02:32:58;23.40;59.10
22714;DHT22;11524;50.846;4.326;2022-10-28T02:36:11;23.40;59.10
22714;DHT22;11524;50.846;4.326;2022-10-28T02:38:24;23.40;59.30
22714;DHT22;11524;50.846;4.326;2022-10-28T02:40:53;23.40;59.20
22714;DHT22;11524;50.846;4.326;2022-10-28T02:43:22;23.40;59.50
22714;DHT22;11524;50.846;4.326;2022-10-28T02:45:51;23.40;59.30
22714;DHT22;11524;50.846;4.326;2022-10-28T02:48:30;23.40;59.40
22714;DHT22;11524;50.846;4.326;2022-10-28T02:51:11;23.40;59.30
22714;DHT22;11524;50.846;4.326;2022-10-28T02:56:36;23.30;58.90
22714;DHT22;11524;50.846;4.326;2022-10-28T02:59:08;23.30;59.40
22714;DHT22;11524;50.846;4.326;2022-10-28T03:01:34;23.30;59.20
22714;DHT22;11524;50.846;4.326;2022-10-28T03:03:59;23.30;59.30
22714;DHT22;11524;50.846;4.326;2022-10-28T03:06:25;23.30;59.40
22714;DHT22;11524;50.846;4.326;2022-10-28T03:08:50;23.30;59.30
22714;DHT22;11524;50.846;4.326;2022-10-28T03:11:16;23.30;59.30
22714;DHT22;11524;50.846;4.326;2022-10-28T03:13:43;23.30;59.20
22714;DHT22;11524;50.846;4.326;2022-10-28T03:16:09;23.30;59.30
22714;DHT22;11524;50.846;4.326;2022-10-28T03:18:34;23.30;59.00
22714;DHT22;11524;50.846;4.326;2022-10-28T03:21:00;23.30;59.10
22714;DHT22;11524;50.846;4.326;2022-10-28T03:23:25;23.30;59.30
22714;DHT22;11524;50.846;4.326;2022-10-28T03:25:53;23.30;58.80
22714;DHT22;11524;50.846;4.326;2022-10-28T03:28:19;23.30;59.10
22714;DHT22;11524;50.846;4.326;2022-10-28T03:30:44;23.30;59.20
22714;DHT22;11524;50.846;4.326;2022-10-28T03:33:10;23.30;59.20
22714;DHT22;11524;50.846;4.326;2022-10-28T03:35:36;23.40;59.00
22714;DHT22;11524;50.846;4.326;2022-10-28T03:38:01;23.30;59.20
22714;DHT22;11524;50.846;4.326;2022-10-28T03:40:27;23.30;59.20
22714;DHT22;11524;50.846;4.326;2022-10-28T03:42:52;23.30;59.10
22714;DHT22;11524;50.846;4.326;2022-10-28T03:45:18;23.30;59.00
22714;DHT22;11524;50.846;4.326;2022-10-28T03:47:46;23.30;59.20
22714;DHT22;11524;50.846;4.326;2022-10-28T03:50:12;23.30;59.30
22714;DHT22;11524;50.846;4.326;2022-10-28T03:52:37;23.30;59.30
22714;DHT22;11524;50.846;4.326;2022-10-28T03:55:06;23.30;59.40
22714;DHT22;11524;50.846;4.326;2022-10-28T03:57:32;23.30;59.20
22714;DHT22;11524;50.846;4.326;2022-10-28T03:59:58;23.30;59.10
22714;DHT22;11524;50.846;4.326;2022-10-28T04:02:23;23.30;59.30
22714;DHT22;11524;50.846;4.326;2022-10-28T04:04:51;23.30;58.80
22714;DHT22;11524;50.846;4.326;2022-10-28T04:07:19;23.30;59.30
22714;DHT22;11524;50.846;4.326;2022-10-28T04:09:45;23.30;59.10
22714;DHT22;11524;50.846;4.326;2022-10-28T04:12:14;23.30;59.20
22714;DHT22;11524;50.846;4.326;2022-10-28T04:14:39;23.30;58.80
22714;DHT22;11524;50.846;4.326;2022-10-28T04:17:05;23.30;58.70
22714;DHT22;11524;50.846;4.326;2022-10-28T04:19:30;23.30;58.90
22714;DHT22;11524;50.846;4.326;2022-10-28T04:21:56;23.30;58.90
22714;DHT22;11524;50.846;4.326;2022-10-28T04:24:21;23.30;59.10
22714;DHT22;11524;50.846;4.326;2022-10-28T04:26:47;23.30;58.70
22714;DHT22;11524;50.846;4.326;2022-10-28T04:29:12;23.30;59.00
22714;DHT22;11524;50.846;4.326;2022-10-28T04:31:39;23.30;58.60
22714;DHT22;11524;50.846;4.326;2022-10-28T04:34:05;23.30;59.00
22714;DHT22;11524;50.846;4.326;2022-10-28T04:36:30;23.30;59.00
22714;DHT22;11524;50.846;4.326;2022-10-28T04:38:56;23.30;58.90
22714;DHT22;11524;50.846;4.326;2022-10-28T04:41:21;23.30;58.60
22714;DHT22;11524;50.846;4.326;2022-10-28T04:43:47;23.30;58.60
22714;DHT22;11524;50.846;4.326;2022-10-28T04:46:13;23.30;58.50
22714;DHT22;11524;50.846;4.326;2022-10-28T04:48:38;23.30;58.70
22714;DHT22;11524;50.846;4.326;2022-10-28T04:51:04;23.20;58.60
22714;DHT22;11524;50.846;4.326;2022-10-28T04:53:29;23.20;58.90
22714;DHT22;11524;50.846;4.326;2022-10-28T04:55:56;23.20;58.80
22714;DHT22;11524;50.846;4.326;2022-10-28T04:58:23;23.20;60.50
22714;DHT22;11524;50.846;4.326;2022-10-28T05:00:49;23.20;62.60
22714;DHT22;11524;50.846;4.326;2022-10-28T05:03:14;23.30;63.10
22714;DHT22;11524;50.846;4.326;2022-10-28T05:05:40;23.30;63.00
22714;DHT22;11524;50.846;4.326;2022-10-28T05:08:06;23.40;63.10
22714;DHT22;11524;50.846;4.326;2022-10-28T05:10:32;23.30;63.00
22714;DHT22;11524;50.846;4.326;2022-10-28T05:12:58;23.40;63.20
22714;DHT22;11524;50.846;4.326;2022-10-28T05:15:23;23.40;63.10
22714;DHT22;11524;50.846;4.326;2022-10-28T05:17:56;23.40;63.00
22714;DHT22;11524;50.846;4.326;2022-10-28T05:20:22;23.40;62.90
22714;DHT22;11524;50.846;4.326;2022-10-28T05:22:50;23.40;62.90
22714;DHT22;11524;50.846;4.326;2022-10-28T05:25:17;23.40;62.90
22714;DHT22;11524;50.846;4.326;2022-10-28T05:27:43;23.40;62.10
22714;DHT22;11524;50.846;4.326;2022-10-28T05:30:09;23.40;59.20
22714;DHT22;11524;50.846;4.326;2022-10-28T05:32:35;23.30;58.70
22714;DHT22;11524;50.846;4.326;2022-10-28T05:35:01;23.30;58.70
22714;DHT22;11524;50.846;4.326;2022-10-28T05:37:26;23.30;59.10
22714;DHT22;11524;50.846;4.326;2022-10-28T05:39:52;23.20;58.80
22714;DHT22;11524;50.846;4.326;2022-10-28T05:42:17;23.20;58.60
22714;DHT22;11524;50.846;4.326;2022-10-28T05:44:43;23.20;58.40
22714;DHT22;11524;50.846;4.326;2022-10-28T05:47:09;23.20;58.30
22714;DHT22;11524;50.846;4.326;2022-10-28T05:49:34;23.20;58.20
22714;DHT22;11524;50.846;4.326;2022-10-28T05:52:00;23.20;58.30
22714;DHT22;11524;50.846;4.326;2022-10-28T05:54:25;23.20;58.10
22714;DHT22;11524;50.846;4.326;2022-10-28T05:56:51;23.20;58.10
22714;DHT22;11524;50.846;4.326;2022-10-28T05:59:17;23.20;58.10
22714;DHT22;11524;50.846;4.326;2022-10-28T06:01:42;23.20;58.60
22714;DHT22;11524;50.846;4.326;2022-10-28T06:04:08;23.20;58.60
22714;DHT22;11524;50.846;4.326;2022-10-28T06:06:33;23.20;58.10
22714;DHT22;11524;50.846;4.326;2022-10-28T06:08:59;23.20;57.90
22714;DHT22;11524;50.846;4.326;2022-10-28T06:11:25;22.70;58.20
22714;DHT22;11524;50.846;4.326;2022-10-28T06:13:50;22.30;59.50
22714;DHT22;11524;50.846;4.326;2022-10-28T06:16:17;22.00;60.60
22714;DHT22;11524;50.846;4.326;2022-10-28T06:18:42;21.80;59.90
22714;DHT22;11524;50.846;4.326;2022-10-28T06:21:09;21.60;60.80
22714;DHT22;11524;50.846;4.326;2022-10-28T06:23:34;21.30;61.40
22714;DHT22;11524;50.846;4.326;2022-10-28T06:26:02;21.10;62.90
22714;DHT22;11524;50.846;4.326;2022-10-28T06:28:28;21.00;63.40
22714;DHT22;11524;50.846;4.326;2022-10-28T06:30:59;20.90;63.00
22714;DHT22;11524;50.846;4.326;2022-10-28T06:33:26;20.70;63.70
22714;DHT22;11524;50.846;4.326;2022-10-28T06:35:56;20.70;64.70
22714;DHT22;11524;50.846;4.326;2022-10-28T06:38:22;20.60;64.00
22714;DHT22;11524;50.846;4.326;2022-10-28T06:40:48;20.80;66.00
22714;DHT22;11524;50.846;4.326;2022-10-28T06:43:14;21.10;65.80
22714;DHT22;11524;50.846;4.326;2022-10-28T06:45:40;21.40;64.50
22714;DHT22;11524;50.846;4.326;2022-10-28T06:48:06;21.60;61.40
22714;DHT22;11524;50.846;4.326;2022-10-28T06:50:33;21.40;62.30
22714;DHT22;11524;50.846;4.326;2022-10-28T06:52:59;21.10;63.10
22714;DHT22;11524;50.846;4.326;2022-10-28T06:55:25;20.90;64.00
22714;DHT22;11524;50.846;4.326;2022-10-28T06:57:51;20.80;63.70
22714;DHT22;11524;50.846;4.326;2022-10-28T07:00:17;20.80;64.00
22714;DHT22;11524;50.846;4.326;2022-10-28T07:02:43;20.80;64.20
22714;DHT22;11524;50.846;4.326;2022-10-28T07:05:09;20.70;64.30
22714;DHT22;11524;50.846;4.326;2022-10-28T07:07:35;20.60;64.30
22714;DHT22;11524;50.846;4.326;2022-10-28T07:10:06;20.50;64.80
22714;DHT22;11524;50.846;4.326;2022-10-28T07:12:32;20.50;65.20
22714;DHT22;11524;50.846;4.326;2022-10-28T07:14:58;20.40;65.20
22714;DHT22;11524;50.846;4.326;2022-10-28T07:17:26;20.40;65.60
22714;DHT22;11524;50.846;4.326;2022-10-28T07:19:55;20.40;65.60
22714;DHT22;11524;50.846;4.326;2022-10-28T07:22:21;20.40;65.90
22714;DHT22;11524;50.846;4.326;2022-10-28T07:24:46;20.40;65.90
22714;DHT22;11524;50.846;4.326;2022-10-28T07:27:12;20.40;66.00
22714;DHT22;11524;50.846;4.326;2022-10-28T07:29:37;20.40;66.00
22714;DHT22;11524;50.846;4.326;2022-10-28T07:32:03;20.40;65.90
22714;DHT22;11524;50.846;4.326;2022-10-28T07:34:29;20.40;65.90
22714;DHT22;11524;50.846;4.326;2022-10-28T07:36:54;20.40;65.80
22714;DHT22;11524;50.846;4.326;2022-10-28T07:39:20;20.50;65.90
22714;DHT22;11524;50.846;4.326;2022-10-28T07:41:46;20.50;65.60
22714;DHT22;11524;50.846;4.326;2022-10-28T07:44:18;20.50;65.50
22714;DHT22;11524;50.846;4.326;2022-10-28T07:46:44;20.60;65.40
22714;DHT22;11524;50.846;4.326;2022-10-28T07:49:09;20.60;65.50
22714;DHT22;11524;50.846;4.326;2022-10-28T07:51:36;20.60;65.50
22714;DHT22;11524;50.846;4.326;2022-10-28T07:54:02;20.70;65.80
22714;DHT22;11524;50.846;4.326;2022-10-28T07:56:28;20.70;65.20
22714;DHT22;11524;50.846;4.326;2022-10-28T07:58:55;20.60;65.20
22714;DHT22;11524;50.846;4.326;2022-10-28T08:01:22;20.70;65.20
22714;DHT22;11524;50.846;4.326;2022-10-28T08:03:48;20.70;65.20
22714;DHT22;11524;50.846;4.326;2022-10-28T08:06:20;20.70;65.20
22714;DHT22;11524;50.846;4.326;2022-10-28T08:08:51;20.80;64.90
22714;DHT22;11524;50.846;4.326;2022-10-28T08:11:19;20.80;64.70
22714;DHT22;11524;50.846;4.326;2022-10-28T08:13:46;20.80;64.70
22714;DHT22;11524;50.846;4.326;2022-10-28T08:16:11;20.80;64.70
22714;DHT22;11524;50.846;4.326;2022-10-28T08:18:37;20.80;64.80
22714;DHT22;11524;50.846;4.326;2022-10-28T08:21:07;20.80;64.70
22714;DHT22;11524;50.846;4.326;2022-10-28T08:23:33;20.90;64.90
22714;DHT22;11524;50.846;4.326;2022-10-28T08:26:02;20.80;64.70
22714;DHT22;11524;50.846;4.326;2022-10-28T08:28:28;20.90;64.70
22714;DHT22;11524;50.846;4.326;2022-10-28T08:31:11;20.90;64.70
22714;DHT22;11524;50.846;4.326;2022-10-28T08:33:42;20.90;64.40
22714;DHT22;11524;50.846;4.326;2022-10-28T08:36:12;21.00;65.30
22714;DHT22;11524;50.846;4.326;2022-10-28T08:38:38;21.30;64.80
22714;DHT22;11524;50.846;4.326;2022-10-28T08:49:16;22.10;61.80
22714;DHT22;11524;50.846;4.326;2022-10-28T08:54:50;22.30;60.90
22714;DHT22;11524;50.846;4.326;2022-10-28T08:57:20;22.50;60.50
22714;DHT22;11524;50.846;4.326;2022-10-28T08:59:49;22.70;60.00
22714;DHT22;11524;50.846;4.326;2022-10-28T09:02:20;22.90;59.60
22714;DHT22;11524;50.846;4.326;2022-10-28T09:04:59;23.00;59.20
22714;DHT22;11524;50.846;4.326;2022-10-28T09:07:26;23.10;58.90
22714;DHT22;11524;50.846;4.326;2022-10-28T09:09:52;23.20;58.70
22714;DHT22;11524;50.846;4.326;2022-10-28T09:12:52;23.30;58.50
22714;DHT22;11524;50.846;4.326;2022-10-28T09:17:56;23.50;58.20
22714;DHT22;11524;50.846;4.326;2022-10-28T09:20:27;23.60;59.00
22714;DHT22;11524;50.846;4.326;2022-10-28T09:22:54;23.60;58.50
22714;DHT22;11524;50.846;4.326;2022-10-28T09:36:24;24.00;58.50
22714;DHT22;11524;50.846;4.326;2022-10-28T09:38:54;24.10;59.50
22714;DHT22;11524;50.846;4.326;2022-10-28T09:41:26;24.20;59.80
22714;DHT22;11524;50.846;4.326;2022-10-28T09:44:04;24.20;59.80
22714;DHT22;11524;50.846;4.326;2022-10-28T09:46:31;24.30;59.70
22714;DHT22;11524;50.846;4.326;2022-10-28T09:49:02;24.30;60.10
22714;DHT22;11524;50.846;4.326;2022-10-28T09:54:12;24.40;59.10
22714;DHT22;11524;50.846;4.326;2022-10-28T09:56:38;24.40;58.90
22714;DHT22;11524;50.846;4.326;2022-10-28T09:59:10;24.40;58.80
22714;DHT22;11524;50.846;4.326;2022-10-28T10:01:38;24.40;58.70
22714;DHT22;11524;50.846;4.326;2022-10-28T10:04:22;24.40;58.40
22714;DHT22;11524;50.846;4.326;2022-10-28T10:06:51;24.50;58.20
22714;DHT22;11524;50.846;4.326;2022-10-28T10:09:27;24.50;57.90
22714;DHT22;11524;50.846;4.326;2022-10-28T10:12:01;24.50;57.80
22714;DHT22;11524;50.846;4.326;2022-10-28T10:14:34;24.50;57.60
22714;DHT22;11524;50.846;4.326;2022-10-28T10:17:09;24.50;57.40
22714;DHT22;11524;50.846;4.326;2022-10-28T10:20:01;24.50;57.00
22714;DHT22;11524;50.846;4.326;2022-10-28T10:22:33;24.50;56.80
22714;DHT22;11524;50.846;4.326;2022-10-28T10:24:59;24.60;56.50
22714;DHT22;11524;50.846;4.326;2022-10-28T10:27:26;24.60;56.40
22714;DHT22;11524;50.846;4.326;2022-10-28T10:29:53;24.60;56.20
22714;DHT22;11524;50.846;4.326;2022-10-28T10:32:38;24.60;56.00
22714;DHT22;11524;50.846;4.326;2022-10-28T10:35:22;24.70;56.00
22714;DHT22;11524;50.846;4.326;2022-10-28T10:37:48;24.70;55.80
22714;DHT22;11524;50.846;4.326;2022-10-28T10:42:51;24.70;55.50
22714;DHT22;11524;50.846;4.326;2022-10-28T10:45:23;24.70;55.20
22714;DHT22;11524;50.846;4.326;2022-10-28T10:48:06;24.80;55.00
22714;DHT22;11524;50.846;4.326;2022-10-28T10:50:41;24.80;55.00
22714;DHT22;11524;50.846;4.326;2022-10-28T10:53:20;24.80;54.80
22714;DHT22;11524;50.846;4.326;2022-10-28T10:55:58;24.80;54.60
22714;DHT22;11524;50.846;4.326;2022-10-28T10:58:29;24.80;54.60
22714;DHT22;11524;50.846;4.326;2022-10-28T11:00:56;24.80;54.40
22714;DHT22;11524;50.846;4.326;2022-10-28T11:03:48;24.80;54.30
22714;DHT22;11524;50.846;4.326;2022-10-28T11:06:42;24.80;54.60
22714;DHT22;11524;50.846;4.326;2022-10-28T11:11:45;24.90;54.30
22714;DHT22;11524;50.846;4.326;2022-10-28T11:19:37;24.90;54.40
22714;DHT22;11524;50.846;4.326;2022-10-28T11:25:52;25.00;54.60
22714;DHT22;11524;50.846;4.326;2022-10-28T11:31:37;25.00;54.80
22714;DHT22;11524;50.846;4.326;2022-10-28T11:34:19;25.00;54.80
22714;DHT22;11524;50.846;4.326;2022-10-28T11:46:09;25.00;54.80
22714;DHT22;11524;50.846;4.326;2022-10-28T11:48:41;25.00;54.80
22714;DHT22;11524;50.846;4.326;2022-10-28T11:51:11;25.00;54.70
22714;DHT22;11524;50.846;4.326;2022-10-28T11:56:26;25.10;54.70
22714;DHT22;11524;50.846;4.326;2022-10-28T12:05:12;25.10;54.60
22714;DHT22;11524;50.846;4.326;2022-10-28T12:08:22;25.10;54.60
22714;DHT22;11524;50.846;4.326;2022-10-28T12:11:17;25.00;54.80
22714;DHT22;11524;50.846;4.326;2022-10-28T12:14:08;25.00;54.80
22714;DHT22;11524;50.846;4.326;2022-10-28T12:22:30;25.00;54.80
22714;DHT22;11524;50.846;4.326;2022-10-28T12:25:02;25.00;54.90
22714;DHT22;11524;50.846;4.326;2022-10-28T12:27:33;25.00;55.00
22714;DHT22;11524;50.846;4.326;2022-10-28T12:30:06;25.00;55.20
22714;DHT22;11524;50.846;4.326;2022-10-28T12:32:35;25.00;55.00
22714;DHT22;11524;50.846;4.326;2022-10-28T12:38:37;25.00;55.10
22714;DHT22;11524;50.846;4.326;2022-10-28T12:43:53;25.00;55.10
22714;DHT22;11524;50.846;4.326;2022-10-28T12:46:27;25.00;55.30
22714;DHT22;11524;50.846;4.326;2022-10-28T12:48:59;25.10;55.50
22714;DHT22;11524;50.846;4.326;2022-10-28T12:51:34;25.10;55.50
22714;DHT22;11524;50.846;4.326;2022-10-28T12:57:24;25.10;55.70
22714;DHT22;11524;50.846;4.326;2022-10-28T13:03:12;25.20;55.80
22714;DHT22;11524;50.846;4.326;2022-10-28T13:15:31;25.30;55.90
22714;DHT22;11524;50.846;4.326;2022-10-28T13:24:15;25.30;55.90
22714;DHT22;11524;50.846;4.326;2022-10-28T13:26:43;25.30;55.90
22714;DHT22;11524;50.846;4.326;2022-10-28T13:29:23;25.30;55.80
22714;DHT22;11524;50.846;4.326;2022-10-28T13:35:23;25.40;55.90
22714;DHT22;11524;50.846;4.326;2022-10-28T13:37:51;25.40;55.70
22714;DHT22;11524;50.846;4.326;2022-10-28T13:42:59;25.30;55.70
22714;DHT22;11524;50.846;4.326;2022-10-28T13:45:51;25.40;55.60
22714;DHT22;11524;50.846;4.326;2022-10-28T13:58:58;25.30;55.20
22714;DHT22;11524;50.846;4.326;2022-10-28T14:04:58;25.40;55.60
22714;DHT22;11524;50.846;4.326;2022-10-28T14:07:18;25.30;55.80
22714;DHT22;11524;50.846;4.326;2022-10-28T14:09:49;25.30;55.90
22714;DHT22;11524;50.846;4.326;2022-10-28T14:12:29;25.30;56.00
22714;DHT22;11524;50.846;4.326;2022-10-28T14:15:20;25.30;56.10
22714;DHT22;11524;50.846;4.326;2022-10-28T14:17:57;25.30;56.00
22714;DHT22;11524;50.846;4.326;2022-10-28T14:36:45;25.30;56.80
22714;DHT22;11524;50.846;4.326;2022-10-28T14:39:44;25.30;56.90
22714;DHT22;11524;50.846;4.326;2022-10-28T14:42:33;25.20;56.90
22714;DHT22;11524;50.846;4.326;2022-10-28T14:50:40;25.20;56.70
22714;DHT22;11524;50.846;4.326;2022-10-28T14:53:19;25.20;56.80
22714;DHT22;11524;50.846;4.326;2022-10-28T14:55:55;25.20;57.60
22714;DHT22;11524;50.846;4.326;2022-10-28T14:58:25;25.20;57.10
22714;DHT22;11524;50.846;4.326;2022-10-28T15:03:37;25.20;57.30
22714;DHT22;11524;50.846;4.326;2022-10-28T15:06:30;25.20;57.30
22714;DHT22;11524;50.846;4.326;2022-10-28T15:09:15;25.20;57.40
22714;DHT22;11524;50.846;4.326;2022-10-28T15:11:44;25.20;57.40
22714;DHT22;11524;50.846;4.326;2022-10-28T15:14:26;25.20;57.50
22714;DHT22;11524;50.846;4.326;2022-10-28T15:16:53;25.20;57.60
22714;DHT22;11524;50.846;4.326;2022-10-28T15:19:24;25.20;57.60
22714;DHT22;11524;50.846;4.326;2022-10-28T15:24:29;25.20;57.70
22714;DHT22;11524;50.846;4.326;2022-10-28T15:26:55;25.20;57.80
22714;DHT22;11524;50.846;4.326;2022-10-28T15:29:22;25.20;57.90
22714;DHT22;11524;50.846;4.326;2022-10-28T15:32:23;25.20;58.00
22714;DHT22;11524;50.846;4.326;2022-10-28T15:34:49;25.20;57.90
22714;DHT22;11524;50.846;4.326;2022-10-28T15:37:29;25.20;57.90
22714;DHT22;11524;50.846;4.326;2022-10-28T15:40:19;25.20;57.70
22714;DHT22;11524;50.846;4.326;2022-10-28T15:45:31;25.20;57.00
22714;DHT22;11524;50.846;4.326;2022-10-28T15:47:59;25.20;56.80
22714;DHT22;11524;50.846;4.326;2022-10-28T15:50:31;25.20;56.80
22714;DHT22;11524;50.846;4.326;2022-10-28T15:55:33;25.20;56.60
22714;DHT22;11524;50.846;4.326;2022-10-28T16:00:55;25.20;56.60
22714;DHT22;11524;50.846;4.326;2022-10-28T16:08:47;25.20;56.40
22714;DHT22;11524;50.846;4.326;2022-10-28T16:11:16;25.20;56.40
22714;DHT22;11524;50.846;4.326;2022-10-28T16:13:47;25.20;56.30
22714;DHT22;11524;50.846;4.326;2022-10-28T16:16:23;25.10;56.30
22714;DHT22;11524;50.846;4.326;2022-10-28T16:19:04;25.10;56.30
22714;DHT22;11524;50.846;4.326;2022-10-28T16:21:31;25.10;56.30
22714;DHT22;11524;50.846;4.326;2022-10-28T16:23:57;25.20;56.30
22714;DHT22;11524;50.846;4.326;2022-10-28T16:26:26;25.10;56.30
22714;DHT22;11524;50.846;4.326;2022-10-28T16:28:53;25.10;56.30
22714;DHT22;11524;50.846;4.326;2022-10-28T16:31:20;25.10;56.50
22714;DHT22;11524;50.846;4.326;2022-10-28T16:33:46;25.10;56.50
22714;DHT22;11524;50.846;4.326;2022-10-28T16:36:12;25.00;56.50
22714;DHT22;11524;50.846;4.326;2022-10-28T16:38:38;25.10;56.50
22714;DHT22;11524;50.846;4.326;2022-10-28T16:41:05;25.10;56.50
22714;DHT22;11524;50.846;4.326;2022-10-28T16:43:31;25.00;56.50
22714;DHT22;11524;50.846;4.326;2022-10-28T16:45:59;25.00;56.50
22714;DHT22;11524;50.846;4.326;2022-10-28T16:48:27;25.00;56.50
22714;DHT22;11524;50.846;4.326;2022-10-28T16:50:56;25.00;56.60
22714;DHT22;11524;50.846;4.326;2022-10-28T16:53:22;25.00;56.60
22714;DHT22;11524;50.846;4.326;2022-10-28T16:55:48;25.00;56.70
22714;DHT22;11524;50.846;4.326;2022-10-28T16:58:13;25.00;56.70
22714;DHT22;11524;50.846;4.326;2022-10-28T17:00:40;25.00;56.70
22714;DHT22;11524;50.846;4.326;2022-10-28T17:03:06;25.00;56.80
22714;DHT22;11524;50.846;4.326;2022-10-28T17:05:32;25.00;57.00
22714;DHT22;11524;50.846;4.326;2022-10-28T17:07:58;24.90;56.90
22714;DHT22;11524;50.846;4.326;2022-10-28T17:10:25;24.90;56.90
22714;DHT22;11524;50.846;4.326;2022-10-28T17:12:51;24.90;57.10
22714;DHT22;11524;50.846;4.326;2022-10-28T17:15:17;24.90;57.10
22714;DHT22;11524;50.846;4.326;2022-10-28T17:17:43;24.90;57.00
22714;DHT22;11524;50.846;4.326;2022-10-28T17:20:09;24.90;57.10
22714;DHT22;11524;50.846;4.326;2022-10-28T17:22:34;24.90;57.30
22714;DHT22;11524;50.846;4.326;2022-10-28T17:25:00;24.90;57.20
22714;DHT22;11524;50.846;4.326;2022-10-28T17:27:25;24.90;57.30
22714;DHT22;11524;50.846;4.326;2022-10-28T17:29:51;24.90;57.40
22714;DHT22;11524;50.846;4.326;2022-10-28T17:32:17;24.90;57.30
22714;DHT22;11524;50.846;4.326;2022-10-28T17:34:43;24.80;57.30
22714;DHT22;11524;50.846;4.326;2022-10-28T17:37:09;24.80;57.30
22714;DHT22;11524;50.846;4.326;2022-10-28T17:39:35;24.90;57.30
22714;DHT22;11524;50.846;4.326;2022-10-28T17:42:02;24.90;57.30
22714;DHT22;11524;50.846;4.326;2022-10-28T17:44:28;24.80;57.20
22714;DHT22;11524;50.846;4.326;2022-10-28T17:46:53;24.90;57.20
22714;DHT22;11524;50.846;4.326;2022-10-28T17:49:19;24.90;57.20
22714;DHT22;11524;50.846;4.326;2022-10-28T17:51:45;24.80;57.20
22714;DHT22;11524;50.846;4.326;2022-10-28T17:54:11;24.80;57.30
22714;DHT22;11524;50.846;4.326;2022-10-28T17:56:36;24.80;57.30
22714;DHT22;11524;50.846;4.326;2022-10-28T17:59:03;24.80;57.30
22714;DHT22;11524;50.846;4.326;2022-10-28T18:01:32;24.80;57.30
22714;DHT22;11524;50.846;4.326;2022-10-28T18:03:58;24.80;57.30
22714;DHT22;11524;50.846;4.326;2022-10-28T18:06:24;24.80;57.30
22714;DHT22;11524;50.846;4.326;2022-10-28T18:08:50;24.80;57.40
22714;DHT22;11524;50.846;4.326;2022-10-28T18:11:17;24.80;57.50
22714;DHT22;11524;50.846;4.326;2022-10-28T18:13:45;24.80;57.50
22714;DHT22;11524;50.846;4.326;2022-10-28T18:16:22;24.80;57.50
22714;DHT22;11524;50.846;4.326;2022-10-28T18:18:50;24.70;57.50
22714;DHT22;11524;50.846;4.326;2022-10-28T18:21:16;24.70;57.50
22714;DHT22;11524;50.846;4.326;2022-10-28T18:23:42;24.70;57.50
22714;DHT22;11524;50.846;4.326;2022-10-28T18:26:12;24.60;57.90
22714;DHT22;11524;50.846;4.326;2022-10-28T18:28:40;24.50;58.30
22714;DHT22;11524;50.846;4.326;2022-10-28T18:31:11;24.40;58.40
22714;DHT22;11524;50.846;4.326;2022-10-28T18:33:37;24.40;58.50
22714;DHT22;11524;50.846;4.326;2022-10-28T18:36:10;24.40;58.60
22714;DHT22;11524;50.846;4.326;2022-10-28T18:38:35;24.40;58.70
22714;DHT22;11524;50.846;4.326;2022-10-28T18:41:01;24.30;58.70
22714;DHT22;11524;50.846;4.326;2022-10-28T18:43:27;24.30;58.70
22714;DHT22;11524;50.846;4.326;2022-10-28T18:45:53;24.30;58.80
22714;DHT22;11524;50.846;4.326;2022-10-28T18:48:18;24.30;59.00
22714;DHT22;11524;50.846;4.326;2022-10-28T18:50:57;24.20;59.00
22714;DHT22;11524;50.846;4.326;2022-10-28T18:53:27;24.20;58.90
22714;DHT22;11524;50.846;4.326;2022-10-28T18:55:57;24.20;59.00
22714;DHT22;11524;50.846;4.326;2022-10-28T18:58:25;24.20;59.00
22714;DHT22;11524;50.846;4.326;2022-10-28T19:00:50;24.20;59.10
22714;DHT22;11524;50.846;4.326;2022-10-28T19:03:21;24.20;59.20
22714;DHT22;11524;50.846;4.326;2022-10-28T19:05:47;24.20;59.10
22714;DHT22;11524;50.846;4.326;2022-10-28T19:08:13;24.20;59.10
22714;DHT22;11524;50.846;4.326;2022-10-28T19:10:39;24.20;59.10
22714;DHT22;11524;50.846;4.326;2022-10-28T19:13:05;24.20;59.10
22714;DHT22;11524;50.846;4.326;2022-10-28T19:15:31;24.20;59.10